Weather observations for the past three days for
Hilton Head Island, Hilton Head Airport
| Date | Time (edt) | Wind (kph) | Vis. (km) | Weather | Sky Cond. | Temperature (ºC) | Relative Humidity | Wind Chill (°C) | Heat Index (°C) | Pressure | Precipitation (cm) | ||||||
|---|---|---|---|---|---|---|---|---|---|---|---|---|---|---|---|---|---|
| Air | Dwpt | 6 hour | altimeter (cm) | sea level (mb) | 1 hr | 3 hr | 6 hr | ||||||||||
| Max. | Min. | ||||||||||||||||
| 02 | 13:51 | Vrbl 7 | 16.09 | Fair | CLR | 31 | 24 | 66% | 37 | 76.38 | 0.0 | ||||||
| 02 | 12:50 | Vrbl 7 | 16.09 | Fair | CLR | 30 | 25 | 75% | 36 | 76.43 | 0.0 | ||||||
| 02 | 11:50 | NE 9 | 16.09 | Fair | CLR | 30 | 24 | 70% | 35 | 76.45 | 0.0 | ||||||
| 02 | 10:50 | NE 9 | 16.09 | Partly Cloudy | SCT019 | 30 | 25 | 75% | 36 | 76.45 | 0.0 | ||||||
| 02 | 09:50 | NE 19 | 16.09 | Partly Cloudy | SCT013 | 29 | 26 | 84% | 36 | 76.45 | 0.0 | ||||||
| 02 | 07:50 | Calm | 16.09 | Fair | CLR | 26 | 26 | 100% | 28 | 76.4 | 0.0 | ||||||
| 02 | 06:50 | Calm | 16.09 | Fair | CLR | 24 | 24 | 100% | 23 | 76.4 | 0.0 | ||||||
| 02 | 06:35 | Calm | 16.09 | Fair | CLR | 24 | 24 | 100% | 23 | 76.38 | 0.0 | ||||||
| 02 | 06:15 | Calm | 16.09 | Fair | CLR | 25 | 24 | 94% | 26 | 76.38 | 0.0 | ||||||
| 02 | 05:55 | Calm | 16.09 | Fair | CLR | 24 | 24 | 100% | 23 | 76.38 | 0.0 | ||||||
| 02 | 05:35 | Calm | 16.09 | Fair | CLR | 24 | 24 | 100% | 23 | 76.35 | 0.0 | ||||||
| 02 | 05:15 | Calm | 16.09 | Partly Cloudy | SCT013 | 25 | 25 | 100% | 25 | 76.35 | 0.0 | ||||||
| 02 | 04:55 | Calm | 12.87 | Mostly Cloudy | BKN014 | 25 | 25 | 100% | 25 | 76.35 | 0.0 | ||||||
| 02 | 04:35 | Calm | 16.09 | Partly Cloudy | SCT014 | 25 | 25 | 100% | 25 | 76.35 | 0.0 | ||||||
| 02 | 04:15 | Calm | 16.09 | A Few Clouds | FEW015 | 25 | 25 | 100% | 25 | 76.35 | 0.0 | ||||||
| 02 | 03:55 | Calm | 16.09 | Fair | CLR | 25 | 25 | 100% | 25 | 76.35 | 0.0 | ||||||
| 02 | 03:35 | Calm | 16.09 | Fair | CLR | 25 | 25 | 100% | 25 | 76.35 | 0.0 | ||||||
| 02 | 03:15 | Calm | 16.09 | A Few Clouds | FEW014 | 25 | 25 | 100% | 25 | 76.33 | 0.0 | ||||||
| 02 | 02:55 | Calm | 16.09 | Fair | CLR | 25 | 25 | 100% | 25 | 76.33 | 0.0 | ||||||
| 02 | 02:35 | Calm | 16.09 | Fair | CLR | 25 | 25 | 100% | 25 | 76.33 | 0.0 | ||||||
| 02 | 02:15 | Calm | 16.09 | Fair | CLR | 25 | 25 | 100% | 25 | 76.33 | 0.0 | ||||||
| 02 | 01:55 | Calm | 16.09 | Fair | CLR | 25 | 25 | 100% | 25 | 76.35 | 0.0 | ||||||
| 02 | 01:35 | Calm | 16.09 | A Few Clouds | FEW013 | 25 | 25 | 100% | 25 | 76.35 | 0.0 | ||||||
| 02 | 01:15 | Calm | 16.09 | Fair | CLR | 25 | 25 | 100% | 25 | 76.35 | 0.0 | ||||||
| 02 | 00:55 | Calm | 16.09 | Fair | CLR | 26 | 25 | 94% | 28 | 76.35 | 0.0 | ||||||
| 02 | 00:35 | Calm | 16.09 | Fair | CLR | 26 | 25 | 94% | 28 | 76.35 | 0.0 | ||||||
| 02 | 00:15 | Calm | 16.09 | Fair | CLR | 26 | 25 | 94% | 28 | 76.35 | 0.0 | ||||||
| 01 | 23:55 | Calm | 16.09 | Fair | CLR | 26 | 25 | 94% | 28 | 76.35 | 0.0 | ||||||
| 01 | 23:35 | Calm | 16.09 | Fair | CLR | 26 | 25 | 94% | 28 | 76.38 | 0.0 | ||||||
| 01 | 23:15 | Calm | 16.09 | Fair | CLR | 26 | 25 | 94% | 28 | 76.38 | 0.0 | ||||||
| 01 | 22:55 | Calm | 16.09 | Fair | CLR | 26 | 25 | 94% | 28 | 76.38 | 0.0 | ||||||
| 01 | 22:35 | Calm | 16.09 | Fair | CLR | 27 | 25 | 89% | 31 | 76.38 | 0.0 | ||||||
| 01 | 22:15 | Calm | 16.09 | Fair | CLR | 26 | 25 | 94% | 28 | 76.38 | 0.0 | ||||||
| 01 | 21:55 | Calm | 16.09 | Fair | CLR | 27 | 25 | 89% | 31 | 76.38 | 0.0 | ||||||
| 01 | 21:35 | Calm | 16.09 | Fair | CLR | 27 | 25 | 89% | 31 | 76.35 | 0.0 | ||||||
| 01 | 21:15 | Calm | 16.09 | Fair | CLR | 27 | 25 | 89% | 31 | 76.35 | 0.0 | ||||||
| 01 | 20:53 | Calm | 16.09 | Fair | CLR | 27 | 25 | 89% | 31 | 76.33 | 0.0 | ||||||
| 01 | 19:50 | Calm | 16.09 | Fair | CLR | 28 | 25 | 84% | 33 | 76.33 | 0.0 | ||||||
| 01 | 18:50 | Vrbl 6 | 16.09 | Fair | CLR | 29 | 25 | 79% | 35 | 76.33 | 0.0 | ||||||
| 01 | 17:50 | Vrbl 7 | 16.09 | Fair | CLR | 30 | 24 | 70% | 35 | 76.33 | 0.0 | ||||||
| 01 | 16:51 | Vrbl 9 | 16.09 | Fair | CLR | 30 | 25 | 75% | 36 | 76.33 | 0.0 | ||||||
| 01 | 15:51 | S 9 | 16.09 | Fair | CLR | 30 | 25 | 75% | 36 | 76.35 | 0.0 | ||||||
| 01 | 14:50 | NE 6 | 16.09 | Fair | CLR | 30 | 25 | 75% | 36 | 76.38 | 0.0 | ||||||
| 01 | 13:50 | E 9 | 16.09 | Fair | CLR | 30 | 25 | 75% | 36 | 76.43 | 0.0 | ||||||
| 01 | 12:50 | E 11 | 16.09 | Fair | CLR | 31 | 24 | 66% | 37 | 76.48 | 0.0 | ||||||
| 01 | 11:50 | NE 17 | 16.09 | A Few Clouds | FEW019 | 30 | 25 | 75% | 36 | 76.48 | 0.0 | ||||||
| 01 | 10:50 | NE 13 | 16.09 | A Few Clouds | FEW014 | 29 | 25 | 79% | 35 | 76.48 | 0.0 | ||||||
| 01 | 09:50 | NE 15 | 16.09 | Mostly Cloudy | BKN006 | 27 | 25 | 89% | 31 | 76.48 | 0.0 | ||||||
| 01 | 08:50 | NE 15 | 16.09 | Overcast | OVC005 | 26 | 26 | 100% | 28 | 76.48 | 0.0 | ||||||
| 01 | 07:50 | NE 15 | 16.09 | Overcast | OVC004 | 26 | 26 | 100% | 28 | 76.43 | 0.0 | ||||||
| 01 | 06:50 | NE 15 | 16.09 | Mostly Cloudy | BKN004 BKN015 | 26 | 26 | 100% | 28 | 76.38 | 0.0 | ||||||
| 01 | 06:35 | N 13 | 16.09 | Mostly Cloudy | SCT004 BKN015 | 26 | 26 | 100% | 28 | 76.38 | 0.0 | ||||||
| 01 | 06:15 | N 13 | 16.09 | Mostly Cloudy | SCT005 BKN014 | 26 | 26 | 100% | 28 | 76.38 | 0.0 | ||||||
| 01 | 05:56 | Calm | 16.09 | Mostly Cloudy | FEW007 BKN015 | 25 | 25 | 100% | 25 | 76.35 | 0.0 | ||||||
| 01 | 05:35 | Calm | 16.09 | A Few Clouds | FEW007 | 25 | 25 | 100% | 25 | 76.35 | 0.0 | ||||||
| 01 | 05:15 | Calm | 16.09 | Fair | CLR | 25 | 25 | 100% | 25 | 76.35 | 0.0 | ||||||
| 01 | 04:55 | Calm | 16.09 | Fair | CLR | 25 | 25 | 100% | 25 | 76.33 | 0.0 | ||||||
| 01 | 04:35 | Calm | 16.09 | Fair | CLR | 25 | 25 | 100% | 25 | 76.35 | 0.0 | ||||||
| 01 | 04:15 | Calm | 16.09 | Fair | CLR | 25 | 25 | 100% | 25 | 76.35 | 0.0 | ||||||
| 01 | 03:55 | Calm | 16.09 | A Few Clouds | FEW016 | 25 | 25 | 100% | 25 | 76.35 | 0.0 | ||||||
| 01 | 03:35 | Calm | 16.09 | Partly Cloudy | SCT016 | 25 | 25 | 100% | 25 | 76.35 | 0.0 | ||||||
| 01 | 03:15 | Calm | 16.09 | Fair | CLR | 25 | 25 | 100% | 25 | 76.38 | 0.0 | ||||||
| 01 | 02:55 | Calm | 16.09 | Fair | CLR | 25 | 25 | 100% | 25 | 76.38 | 0.0 | ||||||
| 01 | 02:35 | Calm | 16.09 | Fair | CLR | 25 | 25 | 100% | 25 | 76.38 | 0.0 | ||||||
| 01 | 02:15 | Calm | 16.09 | Fair | CLR | 25 | 25 | 100% | 25 | 76.38 | 0.0 | ||||||
| 01 | 01:55 | Calm | 16.09 | Fair | CLR | 25 | 25 | 100% | 25 | 76.4 | 0.0 | ||||||
| 01 | 01:35 | Calm | 16.09 | Fair | CLR | 25 | 25 | 100% | 25 | 76.4 | 0.0 | ||||||
| 01 | 01:15 | Calm | 16.09 | Fair | CLR | 25 | 25 | 100% | 25 | 76.4 | 0.0 | ||||||
| 01 | 00:55 | Calm | 16.09 | Fair | CLR | 25 | 25 | 100% | 25 | 76.4 | 0.0 | ||||||
| 01 | 00:35 | Calm | 16.09 | Fair | CLR | 26 | 25 | 94% | 28 | 76.4 | 0.0 | ||||||
| 01 | 00:15 | Calm | 16.09 | A Few Clouds | FEW014 | 26 | 25 | 94% | 28 | 76.43 | 0.0 | ||||||
| 31 | 23:55 | Vrbl 6 | 16.09 | Partly Cloudy | SCT014 | 26 | 25 | 94% | 28 | 76.43 | 0.0 | ||||||
| 31 | 23:35 | Calm | 16.09 | A Few Clouds | FEW015 | 26 | 25 | 94% | 28 | 76.45 | 0.0 | ||||||
| 31 | 23:15 | Calm | 16.09 | A Few Clouds | FEW015 | 26 | 25 | 94% | 28 | 76.43 | 0.0 | ||||||
| 31 | 22:55 | Calm | 16.09 | Fair | CLR | 26 | 25 | 94% | 28 | 76.45 | 0.0 | ||||||
| 31 | 22:35 | Calm | 16.09 | Fair | CLR | 27 | 25 | 89% | 31 | 76.45 | 0.0 | ||||||
| 31 | 22:15 | Calm | 16.09 | Fair | CLR | 26 | 25 | 94% | 28 | 76.45 | 0.0 | ||||||
| 31 | 21:55 | Calm | 16.09 | Fair | CLR | 27 | 25 | 89% | 31 | 76.45 | 0.0 | ||||||
| 31 | 21:35 | Vrbl 6 | 16.09 | Fair | CLR | 27 | 25 | 89% | 31 | 76.43 | 0.0 | ||||||
| 31 | 21:15 | Calm | 16.09 | Fair | CLR | 26 | 25 | 94% | 28 | 76.43 | 0.0 | ||||||
| 31 | 20:50 | E 6 | 16.09 | Fair | CLR | 27 | 25 | 89% | 31 | 76.4 | 0.0 | ||||||
| 31 | 19:50 | Calm | 16.09 | Fair | CLR | 27 | 24 | 84% | 30 | 76.38 | 0.0 | ||||||
| 31 | 18:50 | Calm | 16.09 | A Few Clouds | FEW025 | 28 | 24 | 79% | 32 | 76.4 | 0.0 | ||||||
| 31 | 17:50 | Calm | 16.09 | Fair | CLR | 29 | 24 | 74% | 34 | 76.4 | 0.0 | ||||||
| 31 | 16:50 | Vrbl 6 | 16.09 | Fair | CLR | 28 | 23 | 74% | 31 | 76.35 | 0.0 | ||||||
| 31 | 15:50 | E 11 | 16.09 | A Few Clouds | FEW030 | 29 | 24 | 74% | 34 | 76.4 | 0.0 | ||||||
| 31 | 14:50 | E 11 | 16.09 | Partly Cloudy | SCT019 | 29 | 24 | 74% | 34 | 76.43 | 0.0 | ||||||
| 31 | 13:50 | E 11 | 16.09 | Partly Cloudy | SCT025 | 28 | 25 | 84% | 33 | 76.5 | 0.0 | ||||||
| 31 | 12:50 | E 11 | 16.09 | Partly Cloudy | FEW025 SCT100 | 28 | 25 | 84% | 33 | 76.56 | 0.0 | ||||||
| 31 | 11:50 | Calm | 16.09 | Partly Cloudy | SCT047 | 27 | 24 | 84% | 30 | 76.58 | 0.0 | ||||||
| 31 | 10:50 | Calm | 16.09 | Light Rain | BKN044 | 25 | 25 | 100% | 25 | 76.56 | 0.0 | ||||||
| 31 | 09:50 | Calm | 16.09 | Thunderstorm in Vicinity | BKN039 | 24 | 24 | 100% | 23 | 76.53 | 0.0 | ||||||
| 31 | 08:50 | NE 9 | 8.05 | Thunderstorm in Vicinity Light Rain | OVC017 | 23 | 23 | 100% | 76.53 | 0.0 | |||||||
| 31 | 07:50 | NE 19 | 16.09 | Mostly Cloudy | SCT006 BKN027 | 25 | 25 | 100% | 25 | 76.45 | 0.0 | ||||||
| 31 | 06:35 | NE 17 | 16.09 | Thunderstorm in Vicinity | SCT019 | 26 | 25 | 94% | 28 | 76.38 | 0.0 | ||||||
| 31 | 06:15 | NE 15 | 16.09 | A Few Clouds | FEW016 FEW021 | 26 | 25 | 94% | 28 | 76.4 | 0.0 | ||||||
| 31 | 05:55 | NE 13 | 16.09 | A Few Clouds | FEW005 FEW028 | 26 | 25 | 94% | 28 | 76.4 | 0.0 | 0.03 | |||||
| 31 | 05:35 | N 15 | 16.09 | Partly Cloudy | SCT005 SCT021 SCT035 | 26 | 26 | 100% | 28 | 76.4 | 0.0 | ||||||
| 31 | 05:15 | NE 11 | 16.09 | Partly Cloudy | SCT020 SCT035 | 26 | 26 | 100% | 28 | 76.4 | 0.0 | ||||||
| 31 | 04:55 | N 9 | 16.09 | A Few Clouds | FEW018 FEW031 | 26 | 25 | 94% | 28 | 76.38 | 0.0 | ||||||
| 31 | 04:35 | Calm | 16.09 | Partly Cloudy | SCT020 SCT026 SCT031 | 25 | 25 | 100% | 25 | 76.38 | 0.0 | ||||||
| 31 | 04:15 | Calm | 16.09 | Mostly Cloudy | BKN021 BKN027 | 25 | 25 | 100% | 25 | 76.4 | 0.0 | ||||||
| 31 | 03:55 | Calm | 16.09 | A Few Clouds | FEW021 | 25 | 25 | 100% | 25 | 76.4 | 0.0 | ||||||
| 31 | 03:35 | Calm | 16.09 | Fair | CLR | 25 | 25 | 100% | 25 | 76.4 | 0.0 | ||||||
| 31 | 03:15 | Calm | 16.09 | A Few Clouds | FEW017 | 25 | 24 | 94% | 26 | 76.4 | 0.0 | ||||||
| 31 | 02:55 | Calm | 16.09 | Partly Cloudy | SCT017 | 25 | 24 | 94% | 26 | 76.4 | 0.0 | ||||||
| 31 | 02:35 | Calm | 16.09 | Mostly Cloudy | BKN017 BKN022 | 26 | 24 | 89% | 28 | 76.4 | 0.0 | ||||||
| 31 | 02:15 | Calm | 16.09 | Mostly Cloudy | BKN017 | 26 | 24 | 89% | 28 | 76.43 | 0.0 | ||||||
| 31 | 01:55 | Calm | 16.09 | Partly Cloudy | SCT018 | 26 | 24 | 89% | 28 | 76.43 | 0.0 | ||||||
| 31 | 01:35 | Calm | 16.09 | A Few Clouds | FEW018 | 27 | 24 | 84% | 30 | 76.43 | 0.0 | ||||||
| 31 | 01:15 | Calm | 16.09 | A Few Clouds | FEW019 | 27 | 24 | 84% | 30 | 76.43 | 0.0 | ||||||
| 31 | 00:55 | E 6 | 16.09 | A Few Clouds | FEW018 | 27 | 24 | 84% | 30 | 76.43 | 0.0 | ||||||
| 31 | 00:35 | Calm | 16.09 | Partly Cloudy | SCT016 | 27 | 25 | 89% | 31 | 76.45 | 0.0 | ||||||
| 31 | 00:15 | Vrbl 6 | 16.09 | Partly Cloudy | SCT016 | 27 | 25 | 89% | 31 | 76.45 | 0.0 | ||||||
| 30 | 23:55 | Vrbl 7 | 16.09 | Fair | CLR | 27 | 24 | 84% | 30 | 76.45 | 0.0 | ||||||
| 30 | 23:35 | Calm | 16.09 | Fair | CLR | 27 | 24 | 84% | 30 | 76.48 | 0.0 | ||||||
| 30 | 23:15 | Calm | 16.09 | Fair | CLR | 27 | 24 | 84% | 30 | 76.48 | 0.0 | ||||||
| 30 | 22:55 | Calm | 16.09 | Fair | CLR | 26 | 25 | 94% | 28 | 76.48 | 0.0 | ||||||
| 30 | 22:35 | Calm | 16.09 | A Few Clouds | FEW017 | 27 | 24 | 84% | 30 | 76.5 | 0.0 | ||||||
| 30 | 22:15 | Vrbl 7 | 16.09 | A Few Clouds | FEW016 | 27 | 24 | 84% | 30 | 76.5 | 0.0 | ||||||
| 30 | 21:55 | Vrbl 7 | 16.09 | A Few Clouds | FEW017 | 27 | 24 | 84% | 30 | 76.5 | 0.0 | ||||||
| 30 | 21:35 | E 9 | 16.09 | Partly Cloudy | SCT017 SCT022 | 27 | 24 | 84% | 30 | 76.5 | 0.0 | ||||||
| 30 | 21:15 | Calm | 16.09 | Partly Cloudy | SCT017 SCT022 | 27 | 24 | 84% | 30 | 76.48 | 0.0 | ||||||
| 30 | 20:50 | Calm | 16.09 | Partly Cloudy | SCT018 | 27 | 24 | 84% | 30 | 76.48 | 0.0 | ||||||
| 30 | 19:50 | Calm | 16.09 | Fair | CLR | 27 | 24 | 84% | 30 | 76.43 | 0.0 | ||||||
| 30 | 18:51 | Calm | 16.09 | Partly Cloudy | SCT080 | 28 | 24 | 79% | 32 | 76.43 | 0.0 | ||||||
| 30 | 17:51 | E 9 | 16.09 | Partly Cloudy | SCT020 | 29 | 24 | 74% | 34 | 76.45 | 0.0 | ||||||
| 30 | 16:50 | E 11 | 16.09 | Partly Cloudy | SCT018 SCT044 | 29 | 24 | 74% | 34 | 76.45 | 0.0 | ||||||
| 30 | 15:50 | NE 7 | 16.09 | Mostly Cloudy | BKN015 | 28 | 25 | 84% | 33 | 76.5 | 0.0 | ||||||
| 30 | 14:51 | NE 13 | 16.09 | Mostly Cloudy | SCT019 BKN026 | 29 | 25 | 79% | 35 | 76.53 | 0.0 | ||||||
| Date | Time (edt) | Wind (kph) | Vis. (km) | Weather | Sky Cond. | Air | Dwpt | Max. | Min. | Relative Humidity | Wind Chill (°C) | Heat Index (°C) | altimeter (cm) | sea level (mb) | 1 hr | 3 hr | 6 hr |
| 6 hour | |||||||||||||||||
| Temperature (ºC) | Pressure | Precipitation (cm) | |||||||||||||||